This is the latest recevied weather packets stored in our database for station/object K3FEF-13. If no packets are shown the sender has not sent any weather packets the latest 10 day(s).
| Time | Temp. | Humidity | Pressure | Rain* | Wind** | Luminosity | Snow |
|---|---|---|---|---|---|---|---|
| 1777589717 | 10.56° C | 69% | 1010.3 hPa | 0 mm | - | - | - |
| 1777580716 | 12.78° C | 64% | 1009.5 hPa | 0 mm | - | - | - |
| 1777576516 | 12.78° C | 69% | 1009.6 hPa | 0 mm | - | - | - |
| 1777574736 | 11.67° C | 72% | 1009.6 hPa | 0 mm | - | - | - |
| 1777574116 | 12.22° C | 70% | 1009.7 hPa | 0 mm | - | - | - |
| 1777572316 | 11.67° C | 74% | 1009.5 hPa | 0 mm | - | - | - |
| 1777570516 | 12.22° C | 76% | 1009.6 hPa | 0 mm | - | - | - |
| 1777569316 | 11.67° C | 79% | 1009.4 hPa | 0 mm | - | - | - |
| 1777568716 | 11.11° C | 78% | 1009.3 hPa | 0 mm | - | - | - |
| 1777565115 | 11.67° C | 80% | 1009.8 hPa | 0 mm | - | - | - |
| 1777563317 | 11.11° C | 82% | 1009.7 hPa | 0 mm | - | - | - |
| 1777560317 | 10.56° C | 88% | 1009.4 hPa | 0 mm | - | - | - |
| 1777559717 | 10.56° C | 88% | 1009.3 hPa | 0 mm | - | - | - |
| 1777556717 | 8.89° C | 94% | 1009.3 hPa | 0 mm | - | - | - |
| 1777547117 | 6.67° C | 96% | 1009.7 hPa | 0 mm | - | - | - |
| 1777545337 | 6.67° C | 96% | 1009.4 hPa | 0 mm | - | - | - |
| 1777544717 | 6.67° C | 96% | 1009.4 hPa | 0 mm | - | - | - |
| 1777542917 | 6.67° C | 96% | 1008.9 hPa | 0.25 mm | - | - | - |
| 1777541137 | 6.67° C | 96% | 1008.8 hPa | 0.25 mm | - | - | - |
| 1777539937 | 6.67° C | 96% | 1008.9 hPa | 0 mm | - | - | - |
| 1777536316 | 6.67° C | 95% | 1009.2 hPa | 0 mm | - | - | - |
| 1777529116 | 6.67° C | 95% | 1009.9 hPa | 0 mm | - | - | - |
| 1777525516 | 7.22° C | 95% | 1010.4 hPa | 0.76 mm | - | - | - |
| 1777524956 | 7.22° C | 95% | 1010.6 hPa | 1.52 mm | - | - | - |
| 1777521337 | 7.22° C | 95% | 1010.4 hPa | 2.54 mm | - | - | - |
* Rain latest hour (hover to see other rain measurements)
** Current wind speed in m/s (hover to see current wind gust speed)